Time;durP1;ratioP1;P1;durP2;ratioP2;P2;SDS_P1;SDS_P2;PMS_P1;PMS_P2;Temp;Humidity;BMP_temperature;BMP_pressure;BME280_temperature;BME280_humidity;BME280_pressure;Samples;Min_cycle;Max_cycle;Signal;HPM_P1;HPM_P2
2022/09/30 00:00:01;;;;;;;8.57;5.80;;;9.40;99.90;;;;;;4977414;28;20403;-68
2022/09/30 00:02:27;;;;;;;13.02;8.40;;;9.30;99.90;;;;;;4977553;28;20042;-68
2022/09/30 00:04:52;;;;;;;14.40;11.40;;;9.60;99.90;;;;;;4977595;28;20054;-68
2022/09/30 00:07:18;;;;;;;11.13;9.18;;;9.50;99.90;;;;;;4977643;28;20054;-68
2022/09/30 00:09:44;;;;;;;6.78;5.97;;;9.40;99.90;;;;;;4959858;28;20082;-68
2022/09/30 00:12:10;;;;;;;7.90;5.57;;;9.30;99.90;;;;;;4976526;28;20046;-68
2022/09/30 00:14:36;;;;;;;7.57;5.07;;;9.30;99.90;;;;;;4977326;28;20105;-68
2022/09/30 00:17:02;;;;;;;5.13;4.50;;;10.10;99.90;;;;;;4977512;28;20133;-68
2022/09/30 00:19:27;;;;;;;4.88;4.40;;;9.50;99.90;;;;;;4977685;28;20135;-68
2022/09/30 00:21:53;;;;;;;5.75;4.18;;;9.40;99.90;;;;;;4976368;28;20483;-68
2022/09/30 00:24:19;;;;;;;4.60;3.90;;;9.40;99.90;;;;;;4977117;28;20186;-68
2022/09/30 00:26:45;;;;;;;5.03;4.00;;;9.50;99.90;;;;;;4977031;28;20046;-68
2022/09/30 00:29:11;;;;;;;6.03;5.43;;;9.30;99.90;;;;;;4976953;28;20134;-68
2022/09/30 00:31:37;;;;;;;5.88;4.95;;;9.30;99.90;;;;;;4977169;28;20057;-68
2022/09/30 00:34:06;;;;;;;5.70;5.18;;;9.40;99.90;;;;;;4975556;28;20055;-68
2022/09/30 00:36:42;;;;;;;5.88;4.97;;;9.40;99.90;;;;;;4977143;28;20046;-68
2022/09/30 00:39:10;;;;;;;5.80;4.60;;;9.40;99.90;;;;;;4976787;28;20051;-68
2022/09/30 00:41:36;;;;;;;5.38;4.88;;;9.70;99.90;;;;;;4975734;28;20499;-69
2022/09/30 00:44:41;;;;;;;6.72;4.68;;;9.50;99.90;;;;;;4959873;28;20046;-68
2022/09/30 00:47:27;;;;;;;5.07;4.28;;;9.50;99.90;;;;;;4975461;28;20487;-68
2022/09/30 00:49:55;;;;;;;4.72;4.13;;;9.60;99.90;;;;;;4976622;28;20051;-68
2022/09/30 00:52:21;;;;;;;5.70;4.45;;;9.40;99.90;;;;;;4976699;28;20069;-68
2022/09/30 00:54:47;;;;;;;5.03;4.53;;;9.60;99.90;;;;;;4976758;28;20129;-68
2022/09/30 00:57:12;;;;;;;5.03;4.30;;;9.40;99.90;;;;;;4976756;28;20057;-68
2022/09/30 00:59:46;;;;;;;5.28;4.25;;;9.40;99.90;;;;;;4976690;28;20104;-68
2022/09/30 01:02:13;;;;;;;4.38;3.83;;;9.70;99.90;;;;;;4976642;28;20055;-68
2022/09/30 01:04:41;;;;;;;5.13;3.92;;;9.70;99.90;;;;;;4976367;28;20055;-68
2022/09/30 01:07:08;;;;;;;4.88;4.28;;;9.60;99.90;;;;;;4976420;28;20047;-68
2022/09/30 01:09:37;;;;;;;5.07;4.25;;;9.50;99.90;;;;;;4975910;28;20198;-68
2022/09/30 01:12:09;;;;;;;5.55;4.30;;;9.60;99.90;;;;;;4975985;28;20558;-68
2022/09/30 01:14:36;;;;;;;5.05;4.15;;;9.50;99.90;;;;;;4976168;28;20050;-68
2022/09/30 01:17:24;;;;;;;5.88;4.25;;;9.50;99.90;;;;;;4975979;28;20046;-68
2022/09/30 01:20:08;;;;;;;5.65;4.38;;;9.50;99.90;;;;;;4976311;28;20050;-68
2022/09/30 01:22:40;;;;;;;4.57;4.05;;;9.50;99.90;;;;;;4976230;28;20390;-68
2022/09/30 01:25:32;;;;;;;4.82;4.22;;;9.50;99.90;;;;;;4975813;28;20508;-68
2022/09/30 01:28:25;;;;;;;7.22;4.72;;;9.40;99.90;;;;;;4976119;28;20058;-68
2022/09/30 01:31:22;;;;;;;6.25;4.50;;;9.50;99.90;;;;;;4976125;28;20129;-68
2022/09/30 01:34:00;;;;;;;5.18;4.68;;;9.50;99.90;;;;;;4975379;28;20062;-68
2022/09/30 01:36:51;;;;;;;5.60;4.85;;;9.60;99.90;;;;;;4974625;28;20098;-68
2022/09/30 01:39:45;;;;;;;6.20;4.93;;;9.60;99.90;;;;;;4975197;28;20042;-68
2022/09/30 01:42:27;;;;;;;5.30;4.80;;;9.70;99.90;;;;;;4965080;28;20086;-68
2022/09/30 01:45:02;;;;;;;5.45;4.47;;;9.70;99.90;;;;;;4974446;28;20110;-68
2022/09/30 01:47:56;;;;;;;4.80;3.92;;;9.80;99.90;;;;;;4975571;28;20058;-68
2022/09/30 01:50:46;;;;;;;6.38;4.80;;;9.70;99.90;;;;;;4974521;28;20047;-68
2022/09/30 01:53:18;;;;;;;8.68;5.35;;;9.60;99.90;;;;;;4975599;28;20136;-68
2022/09/30 01:55:55;;;;;;;5.78;4.57;;;9.80;99.90;;;;;;4975582;28;20078;-68
2022/09/30 01:58:36;;;;;;;4.75;4.10;;;9.70;99.90;;;;;;4974390;28;20116;-68
2022/09/30 02:01:07;;;;;;;6.20;4.72;;;9.50;99.90;;;;;;4974185;28;20479;-68
2022/09/30 02:03:46;;;;;;;4.72;4.22;;;9.40;99.90;;;;;;4975347;28;20447;-68
2022/09/30 02:06:17;;;;;;;5.80;4.70;;;9.40;99.90;;;;;;4975644;28;20403;-68
2022/09/30 02:08:55;;;;;;;6.50;5.20;;;9.70;99.90;;;;;;4975133;28;20053;-68
2022/09/30 02:11:31;;;;;;;7.15;4.63;;;9.40;99.90;;;;;;4974429;28;20051;-68
2022/09/30 02:14:24;;;;;;;4.80;4.32;;;9.60;99.90;;;;;;4974992;28;20499;-68
2022/09/30 02:17:06;;;;;;;6.18;4.57;;;9.50;99.90;;;;;;4975105;28;20042;-68
2022/09/30 02:19:41;;;;;;;6.85;4.47;;;9.40;99.90;;;;;;4975100;28;20054;-68
2022/09/30 02:22:12;;;;;;;5.10;4.60;;;9.40;99.90;;;;;;4975261;28;20057;-68
2022/09/30 02:24:42;;;;;;;5.05;4.53;;;9.30;99.90;;;;;;4975084;28;20050;-67
2022/09/30 02:27:23;;;;;;;5.95;5.20;;;9.50;99.90;;;;;;4975113;28;20050;-68
2022/09/30 02:29:54;;;;;;;5.50;4.35;;;9.20;99.90;;;;;;4975019;28;20042;-68
2022/09/30 02:32:32;;;;;;;6.78;5.10;;;9.40;99.90;;;;;;4974798;28;20141;-68
2022/09/30 02:35:21;;;;;;;5.75;4.50;;;9.20;99.90;;;;;;4974828;28;20059;-68
2022/09/30 02:37:53;;;;;;;6.82;4.57;;;9.20;99.90;;;;;;4974750;28;20047;-68
2022/09/30 02:40:30;;;;;;;4.93;4.20;;;9.20;99.90;;;;;;4974218;28;20046;-68
2022/09/30 02:42:56;;;;;;;4.35;3.92;;;9.40;99.90;;;;;;4974791;28;20054;-68
2022/09/30 02:45:23;;;;;;;5.93;4.75;;;9.00;99.90;;;;;;4974996;28;20125;-68
2022/09/30 02:48:03;;;;;;;6.72;4.57;;;9.10;99.90;;;;;;4957653;28;20069;-67
2022/09/30 02:50:40;;;;;;;4.60;4.03;;;8.90;99.90;;;;;;4974826;28;20113;-68
2022/09/30 02:53:29;;;;;;;5.53;4.32;;;9.20;99.90;;;;;;4974514;28;20042;-68
2022/09/30 02:55:55;;;;;;;6.50;4.80;;;9.10;99.90;;;;;;4974582;28;20047;-68
2022/09/30 02:58:24;;;;;;;7.43;5.38;;;8.90;99.90;;;;;;4957526;28;20062;-68
2022/09/30 03:00:52;;;;;;;6.00;4.40;;;9.10;99.90;;;;;;4973720;28;20113;-68
2022/09/30 03:03:23;;;;;;;5.30;4.80;;;9.20;99.90;;;;;;4974595;28;20150;-68
2022/09/30 03:05:50;;;;;;;5.55;4.80;;;9.20;99.90;;;;;;4974581;28;20445;-68
2022/09/30 03:08:16;;;;;;;7.80;5.28;;;8.80;99.90;;;;;;4974513;28;20462;-68
2022/09/30 03:10:42;;;;;;;4.95;4.40;;;8.80;99.90;;;;;;4973890;28;20086;-68
2022/09/30 03:13:45;;;;;;;10.50;6.20;;;9.10;99.90;;;;;;4974393;28;20529;-68
2022/09/30 03:16:30;;;;;;;15.33;5.63;;;8.80;99.90;;;;;;4975266;28;20495;-68
2022/09/30 03:19:07;;;;;;;12.45;4.80;;;8.70;99.90;;;;;;4978570;28;20134;-68
2022/09/30 03:21:57;;;;;;;44.08;6.70;;;8.70;99.90;;;;;;4978251;28;20509;-68
2022/09/30 03:24:41;;;;;;;17.80;5.97;;;8.70;99.90;;;;;;4976778;28;20054;-68
2022/09/30 03:27:22;;;;;;;23.55;7.03;;;8.60;99.90;;;;;;4978275;28;20093;-68
2022/09/30 03:30:05;;;;;;;17.90;6.93;;;8.80;99.90;;;;;;4977137;28;20047;-68
2022/09/30 03:32:54;;;;;;;15.43;7.63;;;8.60;99.90;;;;;;4977063;28;20058;-68
2022/09/30 03:35:45;;;;;;;19.48;7.80;;;8.60;99.90;;;;;;4978341;28;20053;-68
2022/09/30 03:38:37;;;;;;;10.00;5.85;;;8.70;99.90;;;;;;4978151;28;20113;-68
2022/09/30 03:41:26;;;;;;;14.07;6.78;;;8.60;99.90;;;;;;4976179;28;20046;-68
2022/09/30 03:44:14;;;;;;;16.60;6.80;;;8.50;99.90;;;;;;4976698;28;20085;-68
2022/09/30 03:47:09;;;;;;;9.07;5.80;;;8.60;99.90;;;;;;4977722;28;20078;-68
2022/09/30 03:49:41;;;;;;;13.85;6.40;;;8.40;99.90;;;;;;4960692;28;20055;-68
2022/09/30 03:52:11;;;;;;;8.50;5.65;;;8.60;99.90;;;;;;4977793;28;20053;-68
2022/09/30 03:54:51;;;;;;;6.68;5.47;;;8.40;99.90;;;;;;4977768;28;20050;-68
2022/09/30 03:57:16;;;;;;;23.23;5.97;;;8.40;99.90;;;;;;4977610;28;20050;-70
2022/09/30 03:59:42;;;;;;;6.40;5.07;;;8.40;99.90;;;;;;4977573;28;20043;-68
2022/09/30 04:02:12;;;;;;;7.63;4.80;;;8.40;99.90;;;;;;4977255;28;20047;-67
2022/09/30 04:04:39;;;;;;;8.75;4.90;;;8.20;99.90;;;;;;4977495;28;20058;-68
2022/09/30 04:07:05;;;;;;;8.68;5.22;;;8.60;99.90;;;;;;4977499;28;20181;-67
2022/09/30 04:09:31;;;;;;;5.57;4.68;;;8.20;99.90;;;;;;4977007;28;20043;-68
2022/09/30 04:11:57;;;;;;;5.28;4.68;;;8.40;99.90;;;;;;4976173;28;20084;-68
2022/09/30 04:14:22;;;;;;;5.10;4.05;;;8.50;99.90;;;;;;4976309;28;20121;-68
2022/09/30 04:16:48;;;;;;;6.30;4.57;;;8.30;99.90;;;;;;4977472;28;20055;-68
2022/09/30 04:19:14;;;;;;;5.03;4.32;;;8.20;99.90;;;;;;4977329;28;20133;-68
2022/09/30 04:21:39;;;;;;;4.72;4.32;;;8.30;99.90;;;;;;4977297;28;20148;-68
2022/09/30 04:24:05;;;;;;;4.90;4.40;;;8.40;99.90;;;;;;4976195;28;20102;-68
2022/09/30 04:26:31;;;;;;;4.00;3.60;;;8.10;99.90;;;;;;4976583;28;20039;-68
2022/09/30 04:28:57;;;;;;;4.82;4.32;;;8.20;99.90;;;;;;4976031;28;20055;-69
2022/09/30 04:31:23;;;;;;;5.10;4.20;;;8.10;99.90;;;;;;4976876;28;20051;-68
2022/09/30 04:33:49;;;;;;;6.65;4.93;;;8.40;99.90;;;;;;4977000;28;20054;-68
2022/09/30 04:36:16;;;;;;;5.00;4.20;;;8.10;99.90;;;;;;4977126;28;20055;-68
2022/09/30 04:38:42;;;;;;;7.20;4.35;;;8.40;99.90;;;;;;4977132;28;20176;-68
2022/09/30 04:41:14;;;;;;;6.80;4.95;;;7.70;99.90;;;;;;4976509;28;20130;-68
2022/09/30 04:43:45;;;;;;;11.35;4.95;;;8.10;99.90;;;;;;4976977;28;20485;-68
2022/09/30 04:46:11;;;;;;;17.80;5.20;;;7.90;99.90;;;;;;4975549;28;20046;-68
2022/09/30 04:48:37;;;;;;;20.60;5.00;;;8.20;99.90;;;;;;4976824;28;20061;-68
2022/09/30 04:51:03;;;;;;;13.48;4.45;;;8.40;99.90;;;;;;4976650;28;20042;-68
2022/09/30 04:53:29;;;;;;;7.00;3.97;;;7.90;99.90;;;;;;4959314;28;20113;-67
2022/09/30 04:56:01;;;;;;;4.20;3.40;;;8.00;99.90;;;;;;4959369;28;20137;-67
2022/09/30 04:58:27;;;;;;;4.72;4.00;;;8.00;99.90;;;;;;4975437;28;20620;-68
2022/09/30 05:01:20;;;;;;;5.18;3.53;;;7.90;99.90;;;;;;4976852;28;20094;-68
2022/09/30 05:03:46;;;;;;;3.90;3.42;;;7.80;99.90;;;;;;4989092;28;20133;-68
2022/09/30 05:06:13;;;;;;;4.82;3.10;;;8.00;99.90;;;;;;4995742;28;20541;-68
2022/09/30 05:08:41;;;;;;;4.97;2.97;;;7.90;99.90;;;;;;4995614;28;20054;-68
2022/09/30 05:11:09;;;;;;;6.45;3.58;;;7.90;99.90;;;;;;4995308;28;20057;-68
2022/09/30 05:13:37;;;;;;;6.35;3.88;;;7.70;99.90;;;;;;4994509;28;20050;-68
2022/09/30 05:16:04;;;;;;;6.43;4.07;;;8.00;99.90;;;;;;4995780;28;20055;-68
2022/09/30 05:18:30;;;;;;;4.65;3.50;;;7.50;99.90;;;;;;4995608;28;20077;-68
2022/09/30 05:20:57;;;;;;;3.25;2.78;;;7.70;99.90;;;;;;4995494;28;20506;-68
2022/09/30 05:23:24;;;;;;;3.90;3.47;;;7.50;99.90;;;;;;4995490;28;20054;-67
2022/09/30 05:25:50;;;;;;;4.75;2.85;;;7.50;99.90;;;;;;4994365;28;20038;-68
2022/09/30 05:28:17;;;;;;;4.53;3.42;;;7.60;99.90;;;;;;4995359;28;20130;-68
2022/09/30 05:30:44;;;;;;;16.33;4.05;;;8.20;99.90;;;;;;4995272;28;20100;-68
2022/09/30 05:33:10;;;;;;;3.78;3.47;;;7.90;99.90;;;;;;4995300;28;20038;-68
2022/09/30 05:35:37;;;;;;;5.07;4.00;;;7.90;99.90;;;;;;4994873;28;20113;-68
2022/09/30 05:38:03;;;;;;;17.00;3.78;;;7.40;99.90;;;;;;4994182;28;20058;-68
2022/09/30 05:40:30;;;;;;;8.63;4.05;;;7.70;99.90;;;;;;4993665;28;20450;-68
2022/09/30 05:42:57;;;;;;;13.85;4.25;;;8.00;99.90;;;;;;4995103;28;20188;-68
2022/09/30 05:45:24;;;;;;;19.60;3.88;;;7.90;99.90;;;;;;4995348;28;20375;-68
2022/09/30 05:47:54;;;;;;;16.88;3.53;;;7.50;99.90;;;;;;4995071;28;20042;-68
2022/09/30 05:50:21;;;;;;;31.65;4.82;;;7.50;99.90;;;;;;4994745;28;20050;-68
2022/09/30 05:52:48;;;;;;;11.02;3.35;;;7.90;99.90;;;;;;4995134;28;20050;-68
2022/09/30 05:55:15;;;;;;;20.83;4.03;;;7.80;99.90;;;;;;4978158;28;20054;-68
2022/09/30 05:57:42;;;;;;;28.67;4.57;;;7.50;99.90;;;;;;4994777;28;20047;-68
2022/09/30 06:00:08;;;;;;;26.95;4.55;;;7.80;99.90;;;;;;4994794;28;20050;-68
2022/09/30 06:02:37;;;;;;;12.73;3.70;;;7.40;99.90;;;;;;4993587;28;20050;-67
2022/09/30 06:05:06;;;;;;;14.90;3.60;;;7.60;99.90;;;;;;4994430;28;20092;-68
2022/09/30 06:07:33;;;;;;;5.78;2.40;;;7.70;99.90;;;;;;4993700;28;20049;-67
2022/09/30 06:09:59;;;;;;;6.10;2.95;;;7.80;99.90;;;;;;4994272;28;20054;-68
2022/09/30 06:12:27;;;;;;;3.95;2.50;;;7.90;99.90;;;;;;4993471;28;20153;-68
2022/09/30 06:14:54;;;;;;;16.55;3.08;;;7.80;99.90;;;;;;4994538;28;20057;-68
2022/09/30 06:17:20;;;;;;;22.67;3.17;;;7.60;99.90;;;;;;4994470;28;20407;-69
2022/09/30 06:19:46;;;;;;;20.55;3.15;;;7.80;99.90;;;;;;4994503;28;20050;-68
2022/09/30 06:22:12;;;;;;;16.67;3.05;;;8.20;99.90;;;;;;4993494;28;20545;-68
2022/09/30 06:24:37;;;;;;;16.65;3.38;;;7.60;99.90;;;;;;4994479;28;20046;-68
2022/09/30 06:27:03;;;;;;;15.75;2.83;;;8.10;99.90;;;;;;4994259;28;20189;-68
2022/09/30 06:29:29;;;;;;;40.35;4.85;;;7.60;99.90;;;;;;4994215;28;20050;-68
2022/09/30 06:31:55;;;;;;;33.20;3.90;;;7.90;99.90;;;;;;4994202;28;20091;-68
2022/09/30 06:34:20;;;;;;;38.78;4.43;;;7.60;99.90;;;;;;4993861;28;20068;-68
2022/09/30 06:36:46;;;;;;;24.45;3.58;;;7.60;99.90;;;;;;4993879;28;20113;-68
2022/09/30 06:39:12;;;;;;;49.40;5.18;;;7.90;99.90;;;;;;4977573;28;20052;-68
2022/09/30 06:41:41;;;;;;;32.63;4.03;;;7.80;99.90;;;;;;4993548;28;20513;-68
2022/09/30 06:44:06;;;;;;;39.53;4.90;;;7.80;99.90;;;;;;4994010;28;20513;-68
2022/09/30 06:46:33;;;;;;;53.03;5.55;;;7.60;99.90;;;;;;4994106;28;20038;-69
2022/09/30 06:48:59;;;;;;;27.70;3.92;;;;;;;;;;4992683;28;20553;-68
2022/09/30 06:51:26;;;;;;;32.92;4.70;;;;;;;;;;4993038;28;20088;-68
2022/09/30 06:53:53;;;;;;;15.15;3.70;;;;;;;;;;4993023;28;20188;-68
2022/09/30 06:56:18;;;;;;;25.33;4.20;;;7.80;99.90;;;;;;4994027;28;20043;-68
2022/09/30 06:58:45;;;;;;;15.63;3.95;;;7.60;99.90;;;;;;4993803;28;20054;-68
2022/09/30 07:01:14;;;;;;;7.43;3.25;;;8.00;99.90;;;;;;4993708;28;20508;-68
2022/09/30 07:03:43;;;;;;;6.55;3.10;;;8.10;99.90;;;;;;4993589;28;20058;-68
2022/09/30 07:06:09;;;;;;;12.50;3.65;;;7.80;99.90;;;;;;4992570;28;20081;-69
2022/09/30 07:08:37;;;;;;;9.23;4.07;;;8.30;99.90;;;;;;4993847;28;20047;-68
2022/09/30 07:11:13;;;;;;;12.40;4.50;;;8.20;99.90;;;;;;4993180;28;20050;-68
2022/09/30 07:13:42;;;;;;;12.00;4.82;;;8.20;99.90;;;;;;4992637;28;20055;-68
2022/09/30 07:16:08;;;;;;;10.85;4.60;;;;;;;;;;4992534;28;20061;-68
2022/09/30 07:18:34;;;;;;;13.07;5.97;;;;;;;;;;4993884;28;20043;-68
2022/09/30 07:21:00;;;;;;;13.43;5.95;;;8.00;99.90;;;;;;4993531;28;20056;-68
2022/09/30 07:23:25;;;;;;;9.88;6.20;;;8.10;99.90;;;;;;4992770;28;20042;-68
2022/09/30 07:25:55;;;;;;;15.82;5.78;;;8.40;99.90;;;;;;4992363;28;20042;-68
2022/09/30 07:28:26;;;;;;;9.68;5.70;;;8.40;99.90;;;;;;4993462;28;20494;-69
2022/09/30 07:30:54;;;;;;;11.73;5.65;;;8.30;99.90;;;;;;4993715;28;20137;-68
2022/09/30 07:33:19;;;;;;;11.50;5.50;;;8.30;99.90;;;;;;4992952;28;20050;-69
2022/09/30 07:35:56;;;;;;;8.25;6.25;;;8.20;99.90;;;;;;4993549;28;20046;-68
2022/09/30 07:38:24;;;;;;;9.00;6.57;;;8.10;99.90;;;;;;4993531;28;20133;-68
2022/09/30 07:40:57;;;;;;;10.02;7.45;;;8.60;99.90;;;;;;4991554;28;20385;-69
2022/09/30 07:43:24;;;;;;;10.68;8.05;;;8.60;99.90;;;;;;4992699;28;20054;-68
2022/09/30 07:45:50;;;;;;;12.95;8.98;;;8.70;99.90;;;;;;4976151;28;20116;-68
2022/09/30 07:51:24;;;;;;;11.18;8.48;;;8.50;99.90;;;;;;4970900;28;20104;-69
2022/09/30 07:53:56;;;;;;;13.10;9.60;;;8.60;99.90;;;;;;4993261;28;20580;-68
2022/09/30 07:56:23;;;;;;;15.93;9.85;;;8.80;99.90;;;;;;4993374;28;20046;-69
2022/09/30 07:58:53;;;;;;;18.45;11.15;;;9.00;99.90;;;;;;4993238;28;20450;-69
2022/09/30 08:01:18;;;;;;;22.02;15.68;;;8.90;99.90;;;;;;4987613;28;20083;-69
2022/09/30 08:03:44;;;;;;;20.52;14.55;;;9.10;99.90;;;;;;4987113;28;20133;-69
2022/09/30 08:06:15;;;;;;;19.30;14.43;;;9.20;99.90;;;;;;4982478;28;20030;-69
2022/09/30 08:08:43;;;;;;;21.02;14.50;;;9.60;99.90;;;;;;4977465;28;20134;-69
2022/09/30 08:11:09;;;;;;;16.58;12.38;;;9.40;99.90;;;;;;4975762;28;20046;-69
2022/09/30 08:13:36;;;;;;;20.58;13.38;;;9.30;99.90;;;;;;4977120;28;20097;-69
2022/09/30 08:16:02;;;;;;;21.95;13.70;;;9.30;99.90;;;;;;4976086;28;20135;-69
2022/09/30 08:18:29;;;;;;;16.15;11.90;;;;;;;;;;4977311;28;20053;-69
2022/09/30 08:20:55;;;;;;;14.50;10.20;;;10.70;99.90;;;;;;4977227;28;20046;-69
2022/09/30 08:23:21;;;;;;;12.45;9.73;;;9.60;99.90;;;;;;4976873;28;20055;-69
2022/09/30 08:25:46;;;;;;;11.55;8.93;;;9.60;99.90;;;;;;4975913;28;20046;-68
2022/09/30 08:28:13;;;;;;;11.30;8.70;;;9.90;99.90;;;;;;4977274;28;20078;-69
2022/09/30 08:30:39;;;;;;;14.10;9.65;;;9.90;99.90;;;;;;4977206;28;20427;-69
2022/09/30 08:33:05;;;;;;;11.43;8.45;;;9.80;99.90;;;;;;4976069;28;20406;-69
2022/09/30 08:35:33;;;;;;;14.48;10.38;;;9.90;99.90;;;;;;4976678;28;20058;-69
2022/09/30 08:37:58;;;;;;;13.45;10.10;;;9.80;99.90;;;;;;4975808;28;20407;-68
2022/09/30 08:40:27;;;;;;;14.73;10.05;;;10.40;99.90;;;;;;4943521;28;20058;-68
2022/09/30 08:43:20;;;;;;;13.68;9.23;;;10.00;99.90;;;;;;4976810;28;20130;-68
2022/09/30 08:46:10;;;;;;;11.10;8.23;;;10.10;99.90;;;;;;4976640;28;20074;-69
2022/09/30 08:48:46;;;;;;;9.63;7.60;;;10.20;99.90;;;;;;4976678;28;20050;-69
2022/09/30 08:51:42;;;;;;;10.05;7.70;;;10.20;99.90;;;;;;4977030;28;20097;-69
2022/09/30 08:54:14;;;;;;;9.00;6.75;;;10.30;99.90;;;;;;4976740;28;20050;-69
2022/09/30 08:56:41;;;;;;;8.82;7.28;;;10.50;99.90;;;;;;4976703;28;20479;-69
2022/09/30 08:59:31;;;;;;;9.18;6.97;;;10.50;99.90;;;;;;4975733;28;20047;-69
2022/09/30 09:02:17;;;;;;;11.65;7.68;;;10.50;99.90;;;;;;4976710;28;20047;-69
2022/09/30 09:04:44;;;;;;;11.00;7.88;;;10.60;99.90;;;;;;4976711;28;20376;-69
2022/09/30 09:07:34;;;;;;;9.15;7.13;;;10.70;99.90;;;;;;4976642;28;20484;-68
2022/09/30 09:10:19;;;;;;;9.60;6.97;;;10.70;99.90;;;;;;4975709;28;20046;-69
2022/09/30 09:12:53;;;;;;;9.48;5.78;;;;;;;;;;4982982;28;20047;-69
2022/09/30 09:15:24;;;;;;;7.63;5.57;;;10.90;99.90;;;;;;4986501;28;20460;-69
2022/09/30 09:17:59;;;;;;;9.85;6.45;;;10.90;99.90;;;;;;4985441;28;20189;-69
2022/09/30 09:20:31;;;;;;;11.00;7.32;;;11.00;99.90;;;;;;4985034;28;20050;-69
2022/09/30 09:22:59;;;;;;;7.88;5.97;;;11.30;99.90;;;;;;4985318;28;20494;-68
2022/09/30 09:25:27;;;;;;;12.02;6.63;;;11.20;99.90;;;;;;4985831;28;20100;-68
2022/09/30 09:28:26;;;;;;;7.55;6.00;;;11.20;99.90;;;;;;4984956;28;20042;-68
2022/09/30 09:30:57;;;;;;;9.10;6.18;;;11.30;99.90;;;;;;4973284;28;20135;-69
2022/09/30 09:33:34;;;;;;;9.25;6.20;;;11.40;99.90;;;;;;4986242;28;20402;-69
2022/09/30 09:36:18;;;;;;;8.10;6.10;;;11.40;99.90;;;;;;4984932;28;20058;-68
2022/09/30 09:38:53;;;;;;;9.40;6.35;;;11.50;99.90;;;;;;4985861;28;20082;-68
2022/09/30 09:41:38;;;;;;;7.63;5.63;;;11.60;99.90;;;;;;4985678;28;20057;-69
2022/09/30 09:44:37;;;;;;;7.40;5.45;;;11.60;99.90;;;;;;4985626;28;20049;-68
2022/09/30 09:47:12;;;;;;;8.63;5.88;;;11.70;99.90;;;;;;4985940;28;20078;-69
2022/09/30 09:50:01;;;;;;;8.75;5.90;;;11.90;99.90;;;;;;4984737;28;20050;-69
2022/09/30 09:52:45;;;;;;;8.02;6.25;;;12.10;99.90;;;;;;4985973;28;20372;-68
2022/09/30 09:55:20;;;;;;;8.95;6.40;;;11.90;99.90;;;;;;4987299;28;20494;-68
2022/09/30 09:57:46;;;;;;;8.18;4.93;;;12.00;99.90;;;;;;4984652;28;20134;-69
2022/09/30 10:03:20;;;;;;;8.90;4.85;;;12.20;99.90;;;;;;4986622;28;20077;-68
2022/09/30 10:06:06;;;;;;;7.63;5.13;;;12.10;99.90;;;;;;4986426;28;20035;-68
2022/09/30 10:08:35;;;;;;;7.28;5.25;;;12.20;99.90;;;;;;4985718;28;20046;-68
2022/09/30 10:11:16;;;;;;;6.10;4.35;;;12.40;99.90;;;;;;4983920;28;20046;-68
2022/09/30 10:13:43;;;;;;;6.93;4.65;;;12.40;99.90;;;;;;4983455;28;20039;-69
2022/09/30 10:16:36;;;;;;;7.55;4.30;;;12.30;99.90;;;;;;4986002;28;20082;-68
2022/09/30 10:19:04;;;;;;;6.55;3.90;;;12.40;99.90;;;;;;4985133;28;20078;-68
2022/09/30 10:21:30;;;;;;;5.75;3.80;;;12.40;99.90;;;;;;4984628;28;20050;-68
2022/09/30 10:23:59;;;;;;;4.95;3.33;;;12.40;99.90;;;;;;4984348;28;20391;-68
2022/09/30 10:26:26;;;;;;;6.20;3.53;;;12.50;99.90;;;;;;4984036;28;20050;-68
2022/09/30 10:28:58;;;;;;;7.50;3.70;;;12.60;99.90;;;;;;4981910;28;20042;-68
2022/09/30 10:31:28;;;;;;;3.60;2.53;;;12.80;99.90;;;;;;4983496;28;20453;-68
2022/09/30 10:34:12;;;;;;;3.83;2.67;;;12.80;99.90;;;;;;4984382;28;20046;-69
2022/09/30 10:36:42;;;;;;;4.60;2.28;;;12.60;99.90;;;;;;4984693;28;20511;-68
2022/09/30 10:39:37;;;;;;;2.83;1.70;;;12.70;99.90;;;;;;4984581;28;20045;-68
2022/09/30 10:42:20;;;;;;;2.90;1.63;;;12.80;99.90;;;;;;4985108;28;20121;-68
2022/09/30 10:44:48;;;;;;;2.75;1.63;;;12.90;99.90;;;;;;4986050;28;20480;-68
2022/09/30 10:47:16;;;;;;;2.40;1.70;;;12.90;99.90;;;;;;4981278;28;20494;-69
2022/09/30 10:49:52;;;;;;;3.35;2.33;;;12.90;99.90;;;;;;4983660;28;20048;-68
2022/09/30 10:52:21;;;;;;;2.88;1.58;;;12.90;99.90;;;;;;4983934;28;20516;-69
2022/09/30 10:54:55;;;;;;;3.35;2.05;;;12.90;99.90;;;;;;4984993;28;20055;-69
2022/09/30 10:57:34;;;;;;;3.28;2.00;;;12.90;99.90;;;;;;4982131;28;20039;-68
2022/09/30 11:00:16;;;;;;;3.55;1.60;;;13.20;99.90;;;;;;4984451;28;20034;-68
2022/09/30 11:02:52;;;;;;;3.15;2.22;;;13.10;99.90;;;;;;4985909;28;20138;-68
2022/09/30 11:05:24;;;;;;;2.83;2.13;;;13.30;99.90;;;;;;4989803;28;20356;-68
2022/09/30 11:08:02;;;;;;;3.15;2.15;;;13.10;99.90;;;;;;4983940;28;20487;-68
2022/09/30 11:11:09;;;;;;;4.55;2.60;;;13.20;99.90;;;;;;4983427;28;20057;-69
2022/09/30 11:13:42;;;;;;;4.93;3.42;;;13.20;99.90;;;;;;4963007;28;20105;-69
2022/09/30 11:16:08;;;;;;;4.07;2.70;;;13.30;99.90;;;;;;4983186;28;20125;-69
2022/09/30 11:18:44;;;;;;;3.13;2.42;;;13.30;99.90;;;;;;4982418;28;20209;-68
2022/09/30 11:21:31;;;;;;;3.42;2.45;;;13.40;99.90;;;;;;4984089;28;20049;-69
2022/09/30 11:24:10;;;;;;;3.75;2.90;;;13.40;99.90;;;;;;4986437;28;20085;-67
2022/09/30 11:26:51;;;;;;;2.92;2.25;;;13.50;99.90;;;;;;4982944;28;20470;-68
2022/09/30 11:29:20;;;;;;;1.70;1.38;;;13.50;99.90;;;;;;4983102;28;20035;-68
2022/09/30 11:32:08;;;;;;;3.10;1.60;;;13.50;99.90;;;;;;4984348;28;20046;-68
2022/09/30 11:34:45;;;;;;;1.90;1.30;;;13.70;99.90;;;;;;4983314;28;20058;-68
2022/09/30 11:37:21;;;;;;;2.55;1.30;;;13.70;99.90;;;;;;4985941;28;20047;-69
2022/09/30 11:40:00;;;;;;;2.28;1.30;;;13.80;99.90;;;;;;4987899;28;20105;-68
2022/09/30 11:43:13;;;;;;;2.38;1.40;;;13.90;99.90;;;;;;4987714;28;20078;-68
2022/09/30 11:45:55;;;;;;;2.35;1.20;;;13.90;99.90;;;;;;4959235;28;20391;-68
2022/09/30 11:48:45;;;;;;;1.52;1.20;;;13.90;99.90;;;;;;4985468;28;20050;-69
2022/09/30 11:51:29;;;;;;;2.45;1.17;;;14.00;99.90;;;;;;4987089;28;20047;-68
2022/09/30 11:54:15;;;;;;;1.60;0.95;;;14.10;99.90;;;;;;4987071;28;20510;-68
2022/09/30 11:56:59;;;;;;;1.98;1.25;;;14.20;99.90;;;;;;4986548;28;20046;-68
2022/09/30 11:59:45;;;;;;;2.22;1.33;;;14.30;99.90;;;;;;4987245;28;20054;-68
2022/09/30 12:02:43;;;;;;;2.17;1.50;;;14.40;99.90;;;;;;4987558;28;20034;-68
2022/09/30 12:05:26;;;;;;;3.25;2.20;;;14.40;99.90;;;;;;4987207;28;20383;-68
2022/09/30 12:07:59;;;;;;;3.88;2.10;;;14.40;99.90;;;;;;4988509;28;20483;-68
2022/09/30 12:10:37;;;;;;;3.15;1.90;;;14.80;99.90;;;;;;4986778;28;20121;-68
2022/09/30 12:13:19;;;;;;;2.45;1.88;;;14.70;99.90;;;;;;4986856;28;20042;-68
2022/09/30 12:15:46;;;;;;;3.33;2.63;;;14.60;99.90;;;;;;4987175;28;20105;-68
2022/09/30 12:18:47;;;;;;;2.60;2.40;;;14.70;99.90;;;;;;4985116;28;20066;-68
2022/09/30 12:21:22;;;;;;;2.58;2.00;;;14.60;99.90;;;;;;4911641;28;20096;-68
2022/09/30 12:24:15;;;;;;;4.45;3.20;;;14.80;99.90;;;;;;4987089;28;20042;-68
2022/09/30 12:26:41;;;;;;;3.38;2.70;;;14.70;99.90;;;;;;5009809;28;20042;-69
2022/09/30 12:32:39;;;;;;;3.03;2.13;;;14.90;99.90;;;;;;4985688;28;20057;-68
2022/09/30 12:35:31;;;;;;;2.92;1.45;;;15.00;99.90;;;;;;4986345;28;20058;-70
2022/09/30 12:38:18;;;;;;;2.65;1.70;;;15.00;99.90;;;;;;4986462;28;20414;-68
2022/09/30 12:41:06;;;;;;;1.95;1.50;;;15.00;99.90;;;;;;4986150;28;20463;-68
2022/09/30 12:43:50;;;;;;;2.25;1.52;;;15.20;99.90;;;;;;4986356;28;20403;-67
2022/09/30 12:46:23;;;;;;;1.80;1.50;;;15.00;99.90;;;;;;4986365;28;20537;-68
2022/09/30 12:48:54;;;;;;;2.42;1.52;;;15.30;99.90;;;;;;4985844;28;20118;-68
2022/09/30 12:51:34;;;;;;;2.03;1.40;;;15.30;99.90;;;;;;4986185;28;20422;-68
2022/09/30 12:54:19;;;;;;;1.65;1.30;;;15.10;99.90;;;;;;4986277;28;20133;-68
2022/09/30 12:56:52;;;;;;;2.55;1.30;;;15.00;99.90;;;;;;4986120;28;20491;-67
2022/09/30 12:59:28;;;;;;;2.13;1.20;;;15.00;99.90;;;;;;4982925;28;20048;-68
2022/09/30 13:01:56;;;;;;;1.40;1.00;;;15.10;99.90;;;;;;4983174;28;20490;-69
2022/09/30 13:04:34;;;;;;;1.85;1.15;;;15.10;99.90;;;;;;4984376;28;20062;-69
2022/09/30 13:07:00;;;;;;;2.00;1.35;;;15.00;99.90;;;;;;4986103;28;20479;-69
2022/09/30 13:09:34;;;;;;;1.60;1.15;;;15.20;99.90;;;;;;4985279;28;20043;-68
2022/09/30 13:12:00;;;;;;;2.28;1.10;;;15.10;99.90;;;;;;4985503;28;20047;-69
2022/09/30 13:14:44;;;;;;;2.03;1.30;;;15.10;99.90;;;;;;4984787;28;20043;-68
2022/09/30 13:17:10;;;;;;;2.85;1.65;;;15.10;99.90;;;;;;4985769;28;20117;-68
2022/09/30 13:19:39;;;;;;;3.00;1.42;;;15.10;99.90;;;;;;4985732;28;20542;-68
2022/09/30 13:22:17;;;;;;;1.85;1.40;;;15.20;99.90;;;;;;4983294;28;20054;-69
2022/09/30 13:25:09;;;;;;;6.97;2.42;;;15.20;99.90;;;;;;4985455;28;20050;-69
2022/09/30 13:28:13;;;;;;;2.83;2.08;;;15.30;99.90;;;;;;4986107;28;20047;-69
2022/09/30 13:30:39;;;;;;;;;;;15.20;99.90;;;;;;4985747;28;20043;-68
2022/09/30 13:33:29;;;;;;;4.72;2.58;;;15.20;99.90;;;;;;4984552;28;19949;-68
2022/09/30 13:35:57;;;;;;;4.45;2.55;;;15.20;99.90;;;;;;4985325;28;20082;-68